TLV weather

Ben Gurion International Airport
Tel Aviv, Central District, Israel

Public forecast

Using degrees Celsius for public forecast. Weather courtesy of forecast.io.

Current aviation weather report (METAR) for Ben Gurion International Airport

Retrieved 2019/10/19 20:20 UTC (25 minutes ago):

LLBG 192020Z 13005KT 9999 FEW025 24/18 Q1018 NOSIG

Aviation forecast (TAF) for Ben Gurion International Airport

Retrieved 2019/10/19 18:06 UTC (3 hours ago):

TAF LLBG 191702Z 1918/2018 VRB03KT 9999 SCT030 PROB40 1923/2005 14005KT BKN025 BECMG 2007/2009 28008KT TX27/2012Z TN20/2004Z